Sant Just Desvern, Spain
Current Conditions -  °F | °C
As of 1:00 AM on Saturday 25 Oct 2014 (Local Time) from LEBL Reporting Station
Clear Clear  
Wind Chill: 63°   Ceiling: Unl
Heat Index: 63°   Visibility: 6mi
Dew Point: 48°   Wind: 5mph
Humidity: 59%   Direction: 300°WNW
Pressure: 30.06"   Gusts: NA
Location:  41.39°N, 2.08°E
Report Text: LEBL 242300Z 30004KT 270V330 CAVOK 17/09 Q1018 NOSIG
Loading
Personal Weather Stations






























Interactive Weather Map
Tropical Storm Tracking
New forecast layout! Learn more

10-Day Weather Forecast

Advertisements
Track Severe Weather on mobile